Time;durP1;ratioP1;P1;durP2;ratioP2;P2;SDS_P1;SDS_P2;PMS_P1;PMS_P2;Temp;Humidity;BMP_temperature;BMP_pressure;BME280_temperature;BME280_humidity;BME280_pressure;Samples;Min_cycle;Max_cycle;Signal;HPM_P1;HPM_P2
2023/06/26 00:00:42;;;;;;;9.45;6.88;;;17.70;99.90;;;;;;5015142;28;20080;-91
2023/06/26 00:03:08;;;;;;;8.32;7.28;;;17.60;99.90;;;;;;5059127;28;20033;-91
2023/06/26 00:05:34;;;;;;;7.88;6.78;;;17.60;99.90;;;;;;5039194;28;20386;-90
2023/06/26 00:08:00;;;;;;;8.07;6.97;;;17.60;99.90;;;;;;5034580;28;20135;-92
2023/06/26 00:10:29;;;;;;;8.13;6.93;;;17.60;99.90;;;;;;5038054;28;20482;-92
2023/06/26 00:12:55;;;;;;;8.32;7.22;;;17.50;99.90;;;;;;5031283;28;20183;-91
2023/06/26 00:15:20;;;;;;;7.78;6.97;;;17.50;99.90;;;;;;5043611;28;20566;-92
2023/06/26 00:17:46;;;;;;;7.30;6.60;;;17.50;99.90;;;;;;5033717;28;20040;-91
2023/06/26 00:20:12;;;;;;;8.13;7.30;;;17.40;99.90;;;;;;5033634;28;20044;-92
2023/06/26 00:22:43;;;;;;;7.60;6.80;;;17.40;99.90;;;;;;5034970;28;20039;-92
2023/06/26 00:25:09;;;;;;;10.68;6.95;;;17.40;99.90;;;;;;5035255;28;20036;-92
2023/06/26 00:27:35;;;;;;;8.23;7.25;;;17.30;99.90;;;;;;5051325;28;20549;-91
2023/06/26 00:30:00;;;;;;;10.80;7.15;;;17.30;99.90;;;;;;5033327;28;20145;-90
2023/06/26 00:32:26;;;;;;;9.00;7.45;;;17.30;99.90;;;;;;5050146;28;20033;-92
2023/06/26 00:34:53;;;;;;;11.32;7.28;;;17.30;99.90;;;;;;5033413;28;20514;-91
2023/06/26 00:37:18;;;;;;;8.30;6.70;;;17.30;99.90;;;;;;5033411;28;20064;-91
2023/06/26 00:39:44;;;;;;;8.27;7.00;;;17.30;99.90;;;;;;5033301;28;20067;-91
2023/06/26 00:42:10;;;;;;;7.65;6.68;;;17.30;99.90;;;;;;5033630;28;20071;-92
2023/06/26 00:44:37;;;;;;;9.52;7.35;;;17.30;99.90;;;;;;5050357;28;20432;-92
2023/06/26 00:47:03;;;;;;;7.93;7.00;;;17.30;99.90;;;;;;5033534;28;20028;-91
2023/06/26 00:49:29;;;;;;;9.10;7.13;;;17.30;99.90;;;;;;5033107;28;20032;-91
2023/06/26 00:51:56;;;;;;;8.18;6.82;;;17.30;99.90;;;;;;5033717;28;20033;-91
2023/06/26 00:54:22;;;;;;;8.48;7.20;;;17.20;99.90;;;;;;5033099;28;20502;-91
2023/06/26 00:56:48;;;;;;;9.27;8.02;;;17.20;99.90;;;;;;5033517;28;20033;-93
2023/06/26 00:59:15;;;;;;;8.23;7.03;;;17.20;99.90;;;;;;5036992;28;20070;-92
2023/06/26 01:01:40;;;;;;;7.72;7.00;;;17.20;99.90;;;;;;5036744;28;20095;-92
2023/06/26 01:04:17;;;;;;;7.93;7.10;;;17.20;99.90;;;;;;5038677;28;20055;-91
2023/06/26 01:06:48;;;;;;;8.43;6.82;;;17.20;99.90;;;;;;5032626;28;20037;-92
2023/06/26 01:09:19;;;;;;;8.50;7.25;;;17.20;99.90;;;;;;5054144;28;20037;-91
2023/06/26 01:11:45;;;;;;;9.52;7.03;;;17.10;99.90;;;;;;5037356;28;20055;-91
2023/06/26 01:14:11;;;;;;;8.40;7.00;;;17.10;99.90;;;;;;5036411;28;20120;-91
2023/06/26 01:16:38;;;;;;;7.63;6.47;;;17.10;99.90;;;;;;5037053;28;20063;-91
2023/06/26 01:19:10;;;;;;;7.90;6.57;;;17.10;99.90;;;;;;5037023;28;20021;-91
2023/06/26 01:21:43;;;;;;;8.32;6.07;;;17.10;99.90;;;;;;5042781;28;20018;-91
2023/06/26 01:24:20;;;;;;;10.93;7.20;;;17.00;99.90;;;;;;5033738;28;20052;-91
2023/06/26 01:26:50;;;;;;;8.35;7.55;;;17.10;99.90;;;;;;5044001;28;20041;-91
2023/06/26 01:29:18;;;;;;;8.15;6.40;;;17.00;99.90;;;;;;5033222;28;20034;-91
2023/06/26 01:31:46;;;;;;;7.70;6.90;;;17.00;99.90;;;;;;5046539;28;20120;-92
2023/06/26 01:34:12;;;;;;;7.95;7.15;;;16.90;99.90;;;;;;5052865;28;20039;-91
2023/06/26 01:36:38;;;;;;;7.55;6.80;;;16.90;99.90;;;;;;5036232;28;20478;-91
2023/06/26 01:39:05;;;;;;;8.13;7.10;;;16.90;99.90;;;;;;5019783;28;20025;-92
2023/06/26 01:41:30;;;;;;;7.97;7.18;;;16.80;99.90;;;;;;5036419;28;20044;-91
2023/06/26 01:44:02;;;;;;;9.27;7.53;;;16.80;99.90;;;;;;5036250;28;20029;-91
2023/06/26 01:47:05;;;;;;;8.52;7.57;;;16.80;99.90;;;;;;5052629;28;20047;-91
2023/06/26 01:49:51;;;;;;;8.65;7.43;;;16.80;99.90;;;;;;5032915;28;20106;-91
2023/06/26 01:52:26;;;;;;;11.18;7.57;;;16.70;99.90;;;;;;5036083;28;20502;-92
2023/06/26 01:55:26;;;;;;;7.75;6.90;;;16.70;99.90;;;;;;5035753;28;20032;-91
2023/06/26 01:57:56;;;;;;;7.88;7.07;;;16.70;99.90;;;;;;5035927;28;20063;-91
2023/06/26 02:00:24;;;;;;;7.95;7.15;;;16.70;99.90;;;;;;5052683;28;20383;-91
2023/06/26 02:02:50;;;;;;;7.85;7.05;;;16.70;99.90;;;;;;5035849;28;20033;-91
2023/06/26 02:05:15;;;;;;;10.93;7.47;;;16.70;99.90;;;;;;5035726;28;20029;-91
2023/06/26 02:07:43;;;;;;;9.18;7.00;;;16.60;99.90;;;;;;5035798;28;20223;-90
2023/06/26 02:10:09;;;;;;;7.15;6.45;;;16.70;99.90;;;;;;5051793;28;20052;-91
2023/06/26 02:12:37;;;;;;;11.32;7.70;;;16.70;99.90;;;;;;5035546;28;20037;-91
2023/06/26 02:15:04;;;;;;;8.93;7.18;;;16.70;99.90;;;;;;5035475;28;20029;-91
2023/06/26 02:17:30;;;;;;;8.45;7.55;;;16.60;99.90;;;;;;5035368;28;20021;-91
2023/06/26 02:19:56;;;;;;;8.00;7.07;;;16.60;99.90;;;;;;5035672;28;20025;-91
2023/06/26 02:22:22;;;;;;;8.05;7.25;;;16.60;99.90;;;;;;5035457;28;20036;-92
2023/06/26 02:24:48;;;;;;;7.93;7.13;;;16.50;99.90;;;;;;5035875;28;20128;-90
2023/06/26 02:27:14;;;;;;;8.80;7.65;;;16.50;99.90;;;;;;5035384;28;20497;-90
2023/06/26 02:29:41;;;;;;;9.60;7.68;;;16.50;99.90;;;;;;5035085;28;20128;-90
2023/06/26 02:32:08;;;;;;;8.40;7.45;;;16.50;99.90;;;;;;5035320;28;20032;-90
2023/06/26 02:34:35;;;;;;;9.10;8.20;;;16.40;99.90;;;;;;5035115;28;20036;-90
2023/06/26 02:37:01;;;;;;;10.27;8.40;;;16.40;99.90;;;;;;5034860;28;20029;-91
2023/06/26 02:39:27;;;;;;;8.68;7.80;;;16.40;99.90;;;;;;5034917;28;20513;-90
2023/06/26 02:41:53;;;;;;;8.80;7.90;;;16.30;99.90;;;;;;5034679;28;20051;-91
2023/06/26 02:44:21;;;;;;;8.43;7.53;;;16.30;99.90;;;;;;5035087;28;20493;-91
2023/06/26 02:46:47;;;;;;;8.43;7.57;;;16.30;99.90;;;;;;5051758;28;20048;-90
2023/06/26 02:49:13;;;;;;;11.00;8.68;;;16.20;99.90;;;;;;5035138;28;20487;-90
2023/06/26 02:51:57;;;;;;;10.25;8.23;;;16.20;99.90;;;;;;5051533;28;20044;-90
2023/06/26 02:54:27;;;;;;;9.77;8.73;;;16.30;99.90;;;;;;5020275;28;20517;-90
2023/06/26 02:56:56;;;;;;;10.52;8.90;;;16.20;99.90;;;;;;5005197;28;20040;-90
2023/06/26 02:59:27;;;;;;;10.32;8.73;;;16.20;99.90;;;;;;5035284;28;20025;-90
2023/06/26 03:01:53;;;;;;;8.70;7.80;;;16.10;99.90;;;;;;5034906;28;20028;-90
2023/06/26 03:04:24;;;;;;;11.65;8.48;;;16.10;99.90;;;;;;5035308;28;20120;-90
2023/06/26 03:06:49;;;;;;;9.32;8.25;;;16.10;99.90;;;;;;5036143;28;20056;-91
2023/06/26 03:09:16;;;;;;;9.23;8.32;;;16.10;99.90;;;;;;5033969;28;20453;-90
2023/06/26 03:11:43;;;;;;;9.82;8.43;;;16.10;99.90;;;;;;5031305;28;20555;-89
2023/06/26 03:14:10;;;;;;;9.82;8.60;;;16.10;99.90;;;;;;5014497;28;20116;-90
2023/06/26 03:16:36;;;;;;;11.02;9.13;;;16.10;99.90;;;;;;5014720;28;20068;-90
2023/06/26 03:19:03;;;;;;;13.90;9.93;;;16.00;99.90;;;;;;5014705;28;20471;-89
2023/06/26 03:21:31;;;;;;;10.88;9.32;;;16.10;99.90;;;;;;5025019;28;20036;-89
2023/06/26 03:23:58;;;;;;;11.07;8.80;;;16.00;99.90;;;;;;5033982;28;20106;-89
2023/06/26 03:26:27;;;;;;;9.77;8.57;;;16.00;99.90;;;;;;5031556;28;20514;-89
2023/06/26 03:28:55;;;;;;;10.13;8.57;;;16.00;99.90;;;;;;5014773;28;20044;-90
2023/06/26 03:31:20;;;;;;;10.75;7.80;;;16.00;99.90;;;;;;5014084;28;20730;-90
2023/06/26 03:33:47;;;;;;;9.45;8.32;;;16.00;99.90;;;;;;5013926;28;20032;-89
2023/06/26 03:36:13;;;;;;;11.15;9.82;;;16.00;99.90;;;;;;5014280;28;20026;-89
2023/06/26 03:38:40;;;;;;;10.23;9.15;;;16.00;99.90;;;;;;5014277;28;20082;-90
2023/06/26 03:41:07;;;;;;;12.93;8.95;;;16.00;99.90;;;;;;5014348;28;20034;-89
2023/06/26 03:43:33;;;;;;;9.73;8.73;;;15.90;99.90;;;;;;5013690;28;20515;-90
2023/06/26 03:46:08;;;;;;;10.18;8.70;;;15.90;99.90;;;;;;5015257;28;20040;-90
2023/06/26 03:48:34;;;;;;;9.07;7.97;;;15.90;99.90;;;;;;5013844;28;20033;-90
2023/06/26 03:51:02;;;;;;;9.85;8.85;;;16.00;99.90;;;;;;5017031;28;20026;-89
2023/06/26 03:53:28;;;;;;;10.90;9.30;;;16.00;99.90;;;;;;5030102;28;20044;-90
2023/06/26 03:55:54;;;;;;;10.43;9.32;;;15.90;99.90;;;;;;5030386;28;20032;-89
2023/06/26 03:58:22;;;;;;;12.07;9.07;;;15.90;99.90;;;;;;5042352;28;20036;-90
2023/06/26 04:00:48;;;;;;;13.65;10.40;;;15.90;99.90;;;;;;5033930;28;20056;-90
2023/06/26 04:03:14;;;;;;;14.27;10.18;;;15.90;99.90;;;;;;5033373;28;20037;-89
2023/06/26 04:05:41;;;;;;;11.73;10.27;;;15.90;99.90;;;;;;5034675;28;20085;-91
2023/06/26 04:08:07;;;;;;;12.18;9.98;;;16.00;99.90;;;;;;5035213;28;20079;-92
2023/06/26 04:10:33;;;;;;;12.27;10.60;;;16.00;99.90;;;;;;5035685;28;20021;-91
2023/06/26 04:12:59;;;;;;;11.38;9.50;;;16.10;99.90;;;;;;5051599;28;20025;-90
2023/06/26 04:15:27;;;;;;;10.20;9.00;;;16.10;99.90;;;;;;5030228;28;20052;-90
2023/06/26 04:17:53;;;;;;;12.45;10.27;;;16.20;99.90;;;;;;5046982;28;20025;-90
2023/06/26 04:20:19;;;;;;;10.63;9.45;;;16.30;99.90;;;;;;5033195;28;20478;-89
2023/06/26 04:22:45;;;;;;;12.52;9.52;;;16.40;99.90;;;;;;5032508;28;20406;-90
2023/06/26 04:25:14;;;;;;;10.48;9.40;;;16.50;99.90;;;;;;5033030;28;20033;-90
2023/06/26 04:27:39;;;;;;;12.52;9.65;;;16.60;99.90;;;;;;5033143;28;20029;-90
2023/06/26 04:30:06;;;;;;;12.23;9.13;;;16.60;99.90;;;;;;5048489;28;20040;-90
2023/06/26 04:32:32;;;;;;;11.95;9.05;;;16.70;99.90;;;;;;5060016;28;20090;-90
2023/06/26 04:34:57;;;;;;;10.68;9.57;;;16.80;99.90;;;;;;5037532;28;20041;-90
2023/06/26 04:37:24;;;;;;;10.82;9.70;;;16.80;99.90;;;;;;5053594;28;20566;-90
2023/06/26 04:39:50;;;;;;;11.35;9.52;;;16.90;99.90;;;;;;5033709;28;20100;-90
2023/06/26 04:42:16;;;;;;;11.27;9.23;;;16.90;99.90;;;;;;5051597;28;20025;-89
2023/06/26 04:44:42;;;;;;;10.25;9.02;;;17.00;99.90;;;;;;5054211;28;20082;-90
2023/06/26 04:47:08;;;;;;;11.00;9.20;;;17.10;99.90;;;;;;5052924;28;20025;-90
2023/06/26 04:49:34;;;;;;;15.48;9.68;;;17.20;99.90;;;;;;5052796;28;20039;-90
2023/06/26 04:52:00;;;;;;;10.82;9.60;;;17.20;99.90;;;;;;5035579;28;20505;-91
2023/06/26 04:54:27;;;;;;;10.05;9.05;;;17.30;99.90;;;;;;5040314;28;20498;-91
2023/06/26 04:56:53;;;;;;;9.27;8.38;;;17.40;99.90;;;;;;5037581;28;20025;-90
2023/06/26 04:59:19;;;;;;;9.85;8.85;;;17.40;99.90;;;;;;5034091;28;20041;-90
2023/06/26 05:01:48;;;;;;;10.07;8.90;;;17.50;99.90;;;;;;5038734;28;20024;-90
2023/06/26 05:04:15;;;;;;;10.57;9.38;;;17.50;99.90;;;;;;5056953;28;20558;-89
2023/06/26 05:06:41;;;;;;;11.35;9.43;;;17.60;99.90;;;;;;5038474;28;20033;-90
2023/06/26 05:09:07;;;;;;;12.38;9.80;;;17.60;99.90;;;;;;5042491;28;20036;-91
2023/06/26 05:11:33;;;;;;;9.80;8.77;;;17.70;99.90;;;;;;5036588;28;20483;-90
2023/06/26 05:13:59;;;;;;;9.88;8.88;;;17.80;99.90;;;;;;5024420;28;20083;-90
2023/06/26 05:16:24;;;;;;;10.20;8.98;;;17.90;99.90;;;;;;5052581;28;20072;-91
2023/06/26 05:18:50;;;;;;;11.77;10.10;;;18.00;99.90;;;;;;5038091;28;20074;-91
2023/06/26 05:21:17;;;;;;;13.80;8.70;;;18.10;99.90;;;;;;5035403;28;20502;-91
2023/06/26 05:23:44;;;;;;;12.30;9.27;;;18.20;99.90;;;;;;5025496;28;20032;-91
2023/06/26 05:26:10;;;;;;;10.98;9.25;;;18.30;99.90;;;;;;5037129;28;20042;-89
2023/06/26 05:28:37;;;;;;;10.48;9.32;;;18.30;99.90;;;;;;5041450;28;20028;-88
2023/06/26 05:31:04;;;;;;;11.65;9.00;;;18.40;99.90;;;;;;5049158;28;20506;-91
2023/06/26 05:33:34;;;;;;;10.20;8.52;;;18.60;99.90;;;;;;5052565;28;20487;-90
2023/06/26 05:36:03;;;;;;;10.45;9.35;;;18.70;99.90;;;;;;5038204;28;20036;-92
2023/06/26 05:38:29;;;;;;;10.25;8.85;;;18.80;99.90;;;;;;5052975;28;20021;-88
2023/06/26 05:40:55;;;;;;;10.18;9.13;;;19.10;99.90;;;;;;5035953;28;20028;-87
2023/06/26 05:43:21;;;;;;;9.77;8.75;;;19.40;99.90;;;;;;5052176;28;20029;-90
2023/06/26 05:45:48;;;;;;;10.10;8.77;;;19.80;99.90;;;;;;5051913;28;20025;-90
2023/06/26 05:48:14;;;;;;;10.35;8.50;;;20.10;99.90;;;;;;5035100;28;20556;-90
2023/06/26 05:50:41;;;;;;;11.10;8.73;;;20.30;99.90;;;;;;5033683;28;20022;-89
2023/06/26 05:53:08;;;;;;;8.90;7.95;;;20.50;99.90;;;;;;5049194;28;20122;-90
2023/06/26 05:55:34;;;;;;;10.57;9.27;;;20.70;99.90;;;;;;5033061;28;20033;-90
2023/06/26 05:58:02;;;;;;;11.93;8.50;;;21.10;99.90;;;;;;5052039;28;20380;-92
2023/06/26 06:00:29;;;;;;;9.20;8.30;;;21.40;99.90;;;;;;5035560;28;20033;-92
2023/06/26 06:02:55;;;;;;;10.73;7.57;;;21.80;99.90;;;;;;5039603;28;20025;-93
2023/06/26 06:05:22;;;;;;;9.40;7.90;;;22.10;99.90;;;;;;5034028;28;20072;-92
2023/06/26 06:07:48;;;;;;;10.43;7.68;;;22.40;99.90;;;;;;5039948;28;20028;-90
2023/06/26 06:10:14;;;;;;;8.73;7.78;;;22.80;99.90;;;;;;5035939;28;20636;-90
2023/06/26 06:12:40;;;;;;;11.57;7.47;;;23.10;99.50;;;;;;5035224;28;20108;-90
2023/06/26 06:15:06;;;;;;;9.90;8.20;;;23.30;98.50;;;;;;5033798;28;20029;-91
2023/06/26 06:17:32;;;;;;;9.30;8.15;;;23.40;97.60;;;;;;5053335;28;20112;-90
2023/06/26 06:19:58;;;;;;;8.35;7.53;;;23.50;97.30;;;;;;5051412;28;20132;-91
2023/06/26 06:22:24;;;;;;;8.25;7.45;;;23.40;96.70;;;;;;5033632;28;20459;-90
2023/06/26 06:24:50;;;;;;;9.27;8.35;;;23.60;97.40;;;;;;5040345;28;20043;-89
2023/06/26 06:27:16;;;;;;;10.23;8.02;;;23.90;95.60;;;;;;5059122;28;20111;-89
2023/06/26 06:29:42;;;;;;;11.50;8.10;;;24.20;93.80;;;;;;5031873;28;20080;-91
2023/06/26 06:32:11;;;;;;;9.10;7.80;;;24.30;94.00;;;;;;5050487;28;20637;-91
2023/06/26 06:34:42;;;;;;;8.45;7.60;;;24.70;93.30;;;;;;5036917;28;20490;-93
2023/06/26 06:37:10;;;;;;;8.70;7.60;;;24.80;91.30;;;;;;5068264;28;20518;-90
2023/06/26 06:39:39;;;;;;;7.70;7.00;;;24.90;91.70;;;;;;5051891;28;20033;-92
2023/06/26 06:42:05;;;;;;;8.18;7.38;;;25.00;91.40;;;;;;5035243;28;20033;-91
2023/06/26 06:44:33;;;;;;;12.40;8.15;;;25.20;91.10;;;;;;5035287;28;20174;-91
2023/06/26 06:46:59;;;;;;;9.13;8.02;;;25.50;90.60;;;;;;5035337;28;20127;-92
2023/06/26 06:49:25;;;;;;;8.73;7.18;;;26.00;89.00;;;;;;5035440;28;20072;-91
2023/06/26 06:51:51;;;;;;;9.35;7.03;;;26.50;88.60;;;;;;5031386;28;20064;-91
2023/06/26 06:54:17;;;;;;;8.93;7.80;;;26.80;89.00;;;;;;5025850;28;20486;-91
2023/06/26 06:56:48;;;;;;;8.38;7.13;;;26.90;84.50;;;;;;5031298;28;20025;-91
2023/06/26 06:59:25;;;;;;;8.38;7.57;;;26.80;82.60;;;;;;5045089;28;20021;-93
2023/06/26 07:01:50;;;;;;;7.50;6.80;;;27.00;85.10;;;;;;5040328;28;20132;-88
2023/06/26 07:04:16;;;;;;;9.00;7.45;;;27.20;80.60;;;;;;5038050;28;20056;-91
2023/06/26 07:06:42;;;;;;;8.98;8.07;;;27.10;79.30;;;;;;5056350;28;20434;-91
2023/06/26 07:09:14;;;;;;;8.68;7.20;;;26.70;80.20;;;;;;5052326;28;20418;-92
2023/06/26 07:11:40;;;;;;;8.13;7.32;;;27.20;82.20;;;;;;5050531;28;20523;-93
2023/06/26 07:14:06;;;;;;;10.60;7.07;;;27.40;76.70;;;;;;5030789;28;20116;-90
2023/06/26 07:16:32;;;;;;;8.98;7.32;;;27.30;78.80;;;;;;5062182;28;20023;-92
2023/06/26 07:18:58;;;;;;;8.07;7.28;;;27.40;79.00;;;;;;5050530;28;20033;-91
2023/06/26 07:21:23;;;;;;;6.90;6.20;;;28.00;81.50;;;;;;5050705;28;20036;-91
2023/06/26 07:23:49;;;;;;;8.27;6.47;;;28.50;79.70;;;;;;5014321;28;20071;-91
2023/06/26 07:26:15;;;;;;;7.43;5.50;;;28.90;76.20;;;;;;5043765;28;20644;-91
2023/06/26 07:28:41;;;;;;;7.75;6.25;;;29.40;70.60;;;;;;5047710;28;20081;-91
2023/06/26 07:31:07;;;;;;;8.90;6.90;;;29.70;63.60;;;;;;5033993;28;21602;-92
2023/06/26 07:33:33;;;;;;;7.25;5.95;;;29.90;59.10;;;;;;5049369;28;20036;-90
2023/06/26 07:35:59;;;;;;;6.53;5.80;;;30.10;62.80;;;;;;5035844;28;20099;-90
2023/06/26 07:38:25;;;;;;;6.40;5.80;;;30.00;58.10;;;;;;5033587;28;20040;-90
2023/06/26 07:40:53;;;;;;;6.40;5.80;;;30.20;58.90;;;;;;5046367;28;20029;-89
2023/06/26 07:43:19;;;;;;;7.70;5.85;;;30.10;55.90;;;;;;5029766;28;20419;-90
2023/06/26 07:45:45;;;;;;;6.82;5.93;;;29.90;60.50;;;;;;5064880;28;20021;-90
2023/06/26 07:48:11;;;;;;;6.47;5.82;;;29.70;66.00;;;;;;5034994;28;20021;-88
2023/06/26 07:50:37;;;;;;;6.72;6.03;;;29.50;57.80;;;;;;5030646;28;20120;-89
2023/06/26 07:53:02;;;;;;;7.10;5.75;;;29.30;62.60;;;;;;5029834;28;20411;-90
2023/06/26 07:55:28;;;;;;;6.60;5.95;;;29.20;61.60;;;;;;5049872;28;20639;-88
2023/06/26 07:57:57;;;;;;;6.30;5.18;;;29.00;64.90;;;;;;5032686;28;20021;-89
2023/06/26 08:00:23;;;;;;;6.10;5.40;;;29.00;61.10;;;;;;5043730;28;20025;-89
2023/06/26 08:02:51;;;;;;;6.75;5.38;;;28.90;62.90;;;;;;5025816;28;20372;-89
2023/06/26 08:05:22;;;;;;;6.50;5.88;;;28.80;59.80;;;;;;5049210;28;20131;-89
2023/06/26 08:07:48;;;;;;;7.80;6.05;;;29.10;64.60;;;;;;5055102;28;20033;-88
2023/06/26 08:10:32;;;;;;;8.05;6.05;;;29.40;57.70;;;;;;5050846;28;20051;-90
2023/06/26 08:12:58;;;;;;;6.38;5.78;;;29.80;58.60;;;;;;5034236;28;20406;-88
2023/06/26 08:15:24;;;;;;;8.02;5.60;;;30.30;59.00;;;;;;5030684;28;20039;-88
2023/06/26 08:17:50;;;;;;;7.63;6.28;;;30.90;56.70;;;;;;5031211;28;20057;-88
2023/06/26 08:20:16;;;;;;;6.18;5.55;;;31.10;50.70;;;;;;5033048;28;20482;-88
2023/06/26 08:22:42;;;;;;;6.85;6.15;;;30.90;54.50;;;;;;5052768;28;20060;-89
2023/06/26 08:25:08;;;;;;;7.60;6.40;;;31.30;55.80;;;;;;5050742;28;20411;-89
2023/06/26 08:27:59;;;;;;;6.35;5.72;;;31.50;49.10;;;;;;5035222;28;20491;-91
2023/06/26 08:30:28;;;;;;;6.10;5.53;;;31.70;53.90;;;;;;5040331;28;20147;-91
2023/06/26 08:32:57;;;;;;;7.00;5.80;;;32.20;51.00;;;;;;5034642;28;20041;-90
2023/06/26 08:35:23;;;;;;;6.57;5.90;;;31.90;48.10;;;;;;5033053;28;20055;-91
2023/06/26 08:37:49;;;;;;;5.85;5.35;;;31.90;54.50;;;;;;5063210;28;20032;-90
2023/06/26 08:40:21;;;;;;;6.32;5.72;;;32.00;53.80;;;;;;5033831;28;20051;-91
2023/06/26 08:42:47;;;;;;;6.90;6.22;;;32.40;52.60;;;;;;5029212;28;20022;-90
2023/06/26 08:45:13;;;;;;;6.50;5.80;;;32.50;49.60;;;;;;5049891;28;20032;-89
2023/06/26 08:47:41;;;;;;;7.70;6.30;;;32.70;51.60;;;;;;5033496;28;20029;-88
2023/06/26 08:50:12;;;;;;;7.90;6.35;;;32.60;54.40;;;;;;5048699;28;20029;-90
2023/06/26 08:52:44;;;;;;;7.10;6.20;;;32.50;52.70;;;;;;5049350;28;20095;-90
2023/06/26 08:55:13;;;;;;;10.00;6.30;;;32.50;51.30;;;;;;5029833;28;20034;-89
2023/06/26 08:57:40;;;;;;;6.72;6.03;;;32.30;52.80;;;;;;5029849;28;20037;-89
2023/06/26 09:00:08;;;;;;;11.85;7.18;;;31.70;49.70;;;;;;5031372;28;20075;-89
2023/06/26 09:02:39;;;;;;;7.20;6.20;;;31.40;54.10;;;;;;5030924;28;20368;-89
2023/06/26 09:05:05;;;;;;;7.15;6.10;;;30.90;49.70;;;;;;5020174;28;20041;-90
2023/06/26 09:07:31;;;;;;;6.38;5.78;;;30.70;51.50;;;;;;5034642;28;20034;-89
2023/06/26 09:09:56;;;;;;;6.40;5.80;;;30.50;53.50;;;;;;5043496;28;20052;-90
2023/06/26 09:12:22;;;;;;;5.95;5.45;;;30.20;56.90;;;;;;5030227;28;20033;-89
2023/06/26 09:14:49;;;;;;;6.78;6.07;;;30.10;57.70;;;;;;5033285;28;20037;-88
2023/06/26 09:17:15;;;;;;;8.73;6.57;;;29.80;50.50;;;;;;5047383;28;20017;-90
2023/06/26 09:19:48;;;;;;;9.63;6.18;;;29.70;54.50;;;;;;5052335;28;20032;-88
2023/06/26 09:22:14;;;;;;;7.28;6.05;;;29.70;57.30;;;;;;5037369;28;20021;-89
2023/06/26 09:24:42;;;;;;;6.78;6.07;;;29.70;58.20;;;;;;5055818;28;20025;-89
2023/06/26 09:27:08;;;;;;;8.13;6.30;;;29.60;50.70;;;;;;5033872;28;20040;-91
2023/06/26 09:29:37;;;;;;;6.82;6.03;;;29.50;49.20;;;;;;5045198;28;20128;-91
2023/06/26 09:32:06;;;;;;;7.63;5.70;;;29.30;51.40;;;;;;5049224;28;20415;-90
2023/06/26 09:34:32;;;;;;;6.43;5.78;;;29.30;53.10;;;;;;5052126;28;20478;-90
2023/06/26 09:37:02;;;;;;;6.97;6.25;;;29.40;54.10;;;;;;5049476;28;20740;-92
2023/06/26 09:39:30;;;;;;;7.65;5.93;;;29.50;55.90;;;;;;5032109;28;20029;-89
2023/06/26 09:41:57;;;;;;;7.55;5.63;;;29.50;53.70;;;;;;5066717;28;20098;-88
2023/06/26 09:44:23;;;;;;;6.15;5.55;;;29.50;53.30;;;;;;5051457;28;20029;-89
2023/06/26 09:46:49;;;;;;;6.95;5.80;;;29.50;54.90;;;;;;5034479;28;20143;-89
2023/06/26 09:49:21;;;;;;;8.10;5.75;;;29.50;53.90;;;;;;5059979;28;20056;-89
2023/06/26 09:51:49;;;;;;;8.38;5.97;;;29.30;53.30;;;;;;5031994;28;20090;-91
2023/06/26 09:54:17;;;;;;;6.75;5.88;;;29.30;55.90;;;;;;5051689;28;20029;-89
2023/06/26 09:56:44;;;;;;;6.38;5.57;;;29.20;52.80;;;;;;5036181;28;20462;-88
2023/06/26 09:59:13;;;;;;;9.52;7.20;;;29.10;55.90;;;;;;5044040;28;20025;-89
2023/06/26 10:01:58;;;;;;;6.88;5.88;;;29.10;53.50;;;;;;5059839;28;20051;-89
2023/06/26 10:04:27;;;;;;;6.27;5.67;;;28.90;48.70;;;;;;5048702;28;20060;-89
2023/06/26 10:07:00;;;;;;;16.50;8.60;;;28.90;55.10;;;;;;5062478;28;20506;-88
2023/06/26 10:09:29;;;;;;;6.68;6.07;;;28.90;56.30;;;;;;5039608;28;20124;-89
2023/06/26 10:12:10;;;;;;;7.10;5.95;;;28.90;58.90;;;;;;5049734;28;20039;-88
2023/06/26 10:14:41;;;;;;;6.45;5.55;;;28.90;52.60;;;;;;5041081;28;20040;-89
2023/06/26 10:17:10;;;;;;;6.68;5.40;;;28.90;55.60;;;;;;5041282;28;20079;-89
2023/06/26 10:19:39;;;;;;;6.55;5.95;;;28.90;59.00;;;;;;5044492;28;20021;-90
2023/06/26 10:22:05;;;;;;;6.10;5.50;;;28.90;56.80;;;;;;5060329;28;20670;-88
2023/06/26 10:24:35;;;;;;;6.13;5.13;;;28.90;56.30;;;;;;5042910;28;20033;-88
2023/06/26 10:27:25;;;;;;;7.75;5.85;;;29.00;57.60;;;;;;5040851;28;20106;-90
2023/06/26 10:29:56;;;;;;;5.60;5.10;;;29.00;53.00;;;;;;5064865;28;20021;-89
2023/06/26 10:32:25;;;;;;;8.30;7.38;;;29.00;58.20;;;;;;5041812;28;20032;-90
2023/06/26 10:34:52;;;;;;;6.32;5.72;;;29.00;58.60;;;;;;5059143;28;20095;-90
2023/06/26 10:37:18;;;;;;;6.50;5.90;;;29.00;56.30;;;;;;5039769;28;20025;-89
2023/06/26 10:39:54;;;;;;;5.60;5.10;;;29.00;55.60;;;;;;5040919;28;20017;-89
2023/06/26 10:42:34;;;;;;;11.65;6.03;;;29.00;52.30;;;;;;5038640;28;20029;-90
2023/06/26 10:45:20;;;;;;;6.95;5.78;;;29.00;56.90;;;;;;5072466;28;20045;-89
2023/06/26 10:47:51;;;;;;;8.85;5.72;;;28.90;57.20;;;;;;5054595;28;20108;-88
2023/06/26 10:50:19;;;;;;;9.38;6.30;;;29.00;50.80;;;;;;5067393;28;20040;-90
2023/06/26 10:52:45;;;;;;;7.60;6.05;;;29.00;54.50;;;;;;5052188;28;20533;-88
2023/06/26 10:55:22;;;;;;;6.35;5.70;;;29.10;54.00;;;;;;5044355;28;20033;-90
2023/06/26 10:57:49;;;;;;;7.95;5.63;;;29.10;52.90;;;;;;5041627;28;20553;-88
2023/06/26 11:00:16;;;;;;;7.70;5.75;;;29.30;54.90;;;;;;5036868;28;20099;-88
2023/06/26 11:02:53;;;;;;;6.50;5.90;;;29.30;53.40;;;;;;5035369;28;20025;-90
2023/06/26 11:05:27;;;;;;;8.20;6.25;;;29.40;56.00;;;;;;5040988;28;20029;-89
2023/06/26 11:08:09;;;;;;;6.78;5.90;;;29.40;52.50;;;;;;5036792;28;20037;-89
2023/06/26 11:10:55;;;;;;;6.53;5.93;;;29.50;53.20;;;;;;5051950;28;20033;-90
2023/06/26 11:13:21;;;;;;;7.13;5.90;;;29.60;53.70;;;;;;5056534;28;20032;-89
2023/06/26 11:15:50;;;;;;;9.15;6.05;;;29.60;53.20;;;;;;5055913;28;20554;-89
2023/06/26 11:18:16;;;;;;;7.53;6.72;;;29.60;51.00;;;;;;5036293;28;20479;-89
2023/06/26 11:20:42;;;;;;;6.72;6.03;;;29.60;48.90;;;;;;5038287;28;20100;-90
2023/06/26 11:23:10;;;;;;;6.95;6.22;;;29.50;52.40;;;;;;5034552;28;20033;-91
2023/06/26 11:25:38;;;;;;;6.47;5.40;;;29.50;50.30;;;;;;5036276;28;20025;-88
2023/06/26 11:28:05;;;;;;;6.70;6.05;;;29.50;53.70;;;;;;5036386;28;20036;-87
2023/06/26 11:30:31;;;;;;;6.50;5.88;;;29.70;51.80;;;;;;5034549;28;20025;-89
2023/06/26 11:33:05;;;;;;;7.03;6.32;;;29.80;55.20;;;;;;5057784;28;20035;-88
2023/06/26 11:35:31;;;;;;;7.30;5.68;;;29.70;53.60;;;;;;5043884;28;20029;-89
2023/06/26 11:38:06;;;;;;;8.40;5.93;;;29.80;53.60;;;;;;5055860;28;20017;-89
2023/06/26 11:40:36;;;;;;;7.38;5.55;;;29.90;54.20;;;;;;5068085;28;20395;-90
2023/06/26 11:43:03;;;;;;;9.95;6.03;;;30.10;53.40;;;;;;5035418;28;20565;-89
2023/06/26 11:45:30;;;;;;;7.20;6.15;;;30.10;51.60;;;;;;5036572;28;20075;-90
2023/06/26 11:47:57;;;;;;;8.48;6.60;;;30.10;51.30;;;;;;5053432;28;20041;-90
2023/06/26 11:50:24;;;;;;;7.78;6.97;;;30.20;50.90;;;;;;5043090;28;20036;-89
2023/06/26 11:52:57;;;;;;;7.40;6.60;;;30.10;51.70;;;;;;5048771;28;20039;-88
2023/06/26 11:55:24;;;;;;;8.00;6.63;;;30.20;51.40;;;;;;5037537;28;20040;-88
2023/06/26 11:57:53;;;;;;;7.00;6.30;;;30.20;51.00;;;;;;5033621;28;20139;-90
2023/06/26 12:00:19;;;;;;;7.32;6.20;;;30.30;50.70;;;;;;5049337;28;20060;-88
2023/06/26 12:02:46;;;;;;;7.65;6.53;;;30.40;53.30;;;;;;5032155;28;20402;-88
2023/06/26 12:05:15;;;;;;;8.88;6.68;;;30.50;48.60;;;;;;5055645;28;20402;-87
2023/06/26 12:07:43;;;;;;;9.10;6.82;;;30.60;50.90;;;;;;5049892;28;20021;-89
2023/06/26 12:10:13;;;;;;;7.47;6.72;;;30.60;50.10;;;;;;5035839;28;20040;-88
2023/06/26 12:12:40;;;;;;;10.02;6.38;;;30.70;53.70;;;;;;5049471;28;20045;-88
2023/06/26 12:15:07;;;;;;;7.10;6.40;;;30.70;50.10;;;;;;5033182;28;20083;-88
2023/06/26 12:17:34;;;;;;;7.32;6.43;;;30.80;48.10;;;;;;5049616;28;20046;-89
2023/06/26 12:19:59;;;;;;;8.55;6.75;;;30.80;50.20;;;;;;5037663;28;20025;-88
2023/06/26 12:22:34;;;;;;;7.78;6.72;;;30.90;52.90;;;;;;5052389;28;20055;-89
2023/06/26 12:25:00;;;;;;;8.97;6.40;;;31.10;48.60;;;;;;5067545;28;20467;-88
2023/06/26 12:27:25;;;;;;;7.65;6.75;;;31.10;50.40;;;;;;5048609;28;20413;-88
2023/06/26 12:29:54;;;;;;;7.80;6.05;;;31.10;47.10;;;;;;5049481;28;20041;-87
2023/06/26 12:32:24;;;;;;;9.60;6.80;;;31.30;52.70;;;;;;5053551;28;20056;-88
2023/06/26 12:34:50;;;;;;;6.68;5.95;;;31.40;52.00;;;;;;5031978;28;20025;-88
2023/06/26 12:37:16;;;;;;;7.75;6.40;;;31.50;53.00;;;;;;5036684;28;20024;-88
2023/06/26 12:39:45;;;;;;;6.63;6.03;;;31.60;49.80;;;;;;5032472;28;20106;-88
2023/06/26 12:42:15;;;;;;;7.13;6.40;;;31.70;51.70;;;;;;5048001;28;20051;-88
2023/06/26 12:44:41;;;;;;;6.22;5.55;;;31.70;50.80;;;;;;5015772;28;20518;-89
2023/06/26 12:47:08;;;;;;;7.57;6.30;;;31.90;48.10;;;;;;5029120;28;20139;-88